Time;durP1;ratioP1;P1;durP2;ratioP2;P2;SDS_P1;SDS_P2;PMS_P1;PMS_P2;Temp;Humidity;BMP_temperature;BMP_pressure;BME280_temperature;BME280_humidity;BME280_pressure;Samples;Min_cycle;Max_cycle;Signal;HPM_P1;HPM_P2
2022/07/24 00:02:24;;;;;;;1999.90;999.90;;;18.30;99.90;;;;;;5035372;28;20492;-72
2022/07/24 00:04:49;;;;;;;1999.90;999.90;;;18.20;99.90;;;;;;5035610;28;20025;-72
2022/07/24 00:07:15;;;;;;;1999.90;999.90;;;18.20;99.90;;;;;;5035704;28;20025;-72
2022/07/24 00:09:41;;;;;;;1999.90;999.90;;;18.20;99.90;;;;;;5035448;28;20104;-72
2022/07/24 00:12:06;;;;;;;1999.90;999.90;;;18.10;99.90;;;;;;5035020;28;20022;-71
2022/07/24 00:14:32;;;;;;;1999.90;999.90;;;18.00;99.90;;;;;;5035106;28;20424;-71
2022/07/24 00:16:58;;;;;;;1999.90;999.90;;;18.10;99.90;;;;;;5035445;28;20053;-71
2022/07/24 00:19:24;;;;;;;1999.90;999.90;;;18.00;99.90;;;;;;5035286;28;20029;-71
2022/07/24 00:21:50;;;;;;;1999.90;999.90;;;18.00;99.90;;;;;;5035139;28;20087;-72
2022/07/24 00:24:16;;;;;;;1999.90;999.90;;;17.90;99.90;;;;;;5035622;28;20052;-71
2022/07/24 00:26:41;;;;;;;1999.90;999.90;;;17.90;99.90;;;;;;5034738;28;20483;-71
2022/07/24 00:29:07;;;;;;;1999.90;999.90;;;17.90;99.90;;;;;;5035173;28;20029;-72
2022/07/24 00:31:32;;;;;;;1999.90;999.90;;;17.80;99.90;;;;;;5035195;28;20037;-72
2022/07/24 00:33:58;;;;;;;1999.90;999.90;;;17.80;99.90;;;;;;5035080;28;20029;-72
2022/07/24 00:36:24;;;;;;;1999.90;999.90;;;17.70;99.90;;;;;;5035206;28;20400;-71
2022/07/24 00:38:49;;;;;;;1999.90;999.90;;;17.70;99.90;;;;;;5034958;28;20068;-71
2022/07/24 00:41:15;;;;;;;1999.90;999.90;;;17.70;99.90;;;;;;5034720;28;20381;-71
2022/07/24 00:44:03;;;;;;;1999.90;999.90;;;17.70;99.90;;;;;;5035239;28;20029;-72
2022/07/24 00:46:30;;;;;;;1999.90;999.90;;;17.60;99.90;;;;;;5027616;28;20056;-71
2022/07/24 00:48:55;;;;;;;1999.90;999.90;;;17.50;99.90;;;;;;5035020;28;20030;-72
2022/07/24 00:51:21;;;;;;;1999.90;999.90;;;17.50;99.90;;;;;;5034754;28;20099;-71
2022/07/24 00:53:47;;;;;;;1999.90;999.90;;;17.50;99.90;;;;;;5035046;28;20476;-72
2022/07/24 00:56:14;;;;;;;1999.90;999.90;;;17.40;99.90;;;;;;5034601;28;20384;-72
2022/07/24 00:58:39;;;;;;;1999.90;999.90;;;17.40;99.90;;;;;;5034705;28;20512;-72
2022/07/24 01:01:05;;;;;;;1999.90;999.90;;;17.40;99.90;;;;;;5034721;28;20033;-71
2022/07/24 01:03:31;;;;;;;1999.90;999.90;;;17.40;99.90;;;;;;5034226;28;20099;-71
2022/07/24 01:05:58;;;;;;;1999.90;999.90;;;17.30;99.90;;;;;;5034880;28;20034;-71
2022/07/24 01:08:24;;;;;;;1999.90;999.90;;;17.30;99.90;;;;;;5020673;28;20476;-72
2022/07/24 01:10:50;;;;;;;1999.90;999.90;;;17.30;99.90;;;;;;5014092;28;20025;-71
2022/07/24 01:13:16;;;;;;;1999.90;999.90;;;17.30;99.90;;;;;;5014543;28;20389;-72
2022/07/24 01:15:42;;;;;;;1999.90;999.90;;;17.30;99.90;;;;;;5013916;28;20025;-72
2022/07/24 01:18:07;;;;;;;1999.90;999.90;;;17.30;99.90;;;;;;5014230;28;20037;-71
2022/07/24 01:20:37;;;;;;;1999.90;999.90;;;17.30;99.90;;;;;;5014351;28;20026;-72
2022/07/24 01:23:03;;;;;;;1999.90;999.90;;;17.30;99.90;;;;;;5014195;28;20029;-72
2022/07/24 01:25:29;;;;;;;1999.90;999.90;;;17.30;99.90;;;;;;5014166;28;20026;-71
2022/07/24 01:27:55;;;;;;;1999.90;999.90;;;17.20;99.90;;;;;;5013986;28;20509;-72
2022/07/24 01:30:20;;;;;;;1999.90;999.90;;;17.20;99.90;;;;;;5014354;28;20034;-72
2022/07/24 01:32:46;;;;;;;1999.90;999.90;;;17.20;99.90;;;;;;5013855;28;20018;-72
2022/07/24 01:35:12;;;;;;;1999.90;999.90;;;17.10;99.90;;;;;;5014048;28;20538;-72
2022/07/24 01:37:37;;;;;;;1999.90;999.90;;;17.00;99.90;;;;;;5017663;28;20120;-72
2022/07/24 01:40:03;;;;;;;1999.90;999.90;;;17.00;99.90;;;;;;5032112;28;20401;-72
2022/07/24 01:42:29;;;;;;;1999.90;999.90;;;16.90;99.90;;;;;;5033863;28;20514;-71
2022/07/24 01:44:55;;;;;;;1999.90;999.90;;;16.90;99.90;;;;;;5033775;28;20033;-71
2022/07/24 01:47:20;;;;;;;1999.90;999.90;;;16.90;99.90;;;;;;5033176;28;20029;-72
2022/07/24 01:49:46;;;;;;;1999.90;999.90;;;16.90;99.90;;;;;;5033598;28;20033;-71
2022/07/24 01:52:11;;;;;;;1999.90;999.90;;;16.80;99.90;;;;;;5033510;28;20393;-72
2022/07/24 01:54:37;;;;;;;1999.90;999.90;;;16.80;99.90;;;;;;5033572;28;20075;-71
2022/07/24 01:57:03;;;;;;;1999.90;999.90;;;16.80;99.90;;;;;;5033643;28;20021;-71
2022/07/24 01:59:29;;;;;;;1999.90;999.90;;;16.70;99.90;;;;;;5033492;28;20033;-72
2022/07/24 02:01:55;;;;;;;1999.90;999.90;;;16.70;99.90;;;;;;5033450;28;20025;-72
2022/07/24 02:04:21;;;;;;;1999.90;999.90;;;16.70;99.90;;;;;;5033358;28;20465;-71
2022/07/24 02:06:46;;;;;;;1999.90;999.90;;;16.60;99.90;;;;;;5033447;28;20108;-71
2022/07/24 02:09:12;;;;;;;1999.90;999.90;;;16.60;99.90;;;;;;5031679;28;20056;-72
2022/07/24 02:11:38;;;;;;;1999.90;999.90;;;16.60;99.90;;;;;;5032915;28;20029;-72
2022/07/24 02:14:03;;;;;;;1999.90;999.90;;;16.50;99.90;;;;;;5033474;28;20028;-71
2022/07/24 02:16:29;;;;;;;1999.90;999.90;;;16.40;99.90;;;;;;5033255;28;20034;-71
2022/07/24 02:18:55;;;;;;;1999.90;999.90;;;16.40;99.90;;;;;;5032753;28;20105;-72
2022/07/24 02:21:20;;;;;;;1999.90;999.90;;;16.30;99.90;;;;;;5033295;28;20155;-71
2022/07/24 02:23:46;;;;;;;1999.90;999.90;;;16.30;99.90;;;;;;5033367;28;20040;-71
2022/07/24 02:26:12;;;;;;;1999.90;999.90;;;16.20;99.90;;;;;;5032940;28;20033;-72
2022/07/24 02:28:37;;;;;;;1999.90;999.90;;;16.20;99.90;;;;;;5032565;28;20042;-71
2022/07/24 02:31:03;;;;;;;1999.90;999.90;;;16.20;99.90;;;;;;5031804;28;20068;-71
2022/07/24 02:33:29;;;;;;;1999.90;999.90;;;16.20;99.90;;;;;;5032752;28;20064;-71
2022/07/24 02:35:54;;;;;;;1999.90;999.90;;;16.20;99.90;;;;;;5032704;28;20036;-72
2022/07/24 02:38:20;;;;;;;1999.90;999.90;;;16.10;99.90;;;;;;5032981;28;20022;-72
2022/07/24 02:40:46;;;;;;;1999.90;999.90;;;16.10;99.90;;;;;;5032620;28;20080;-71
2022/07/24 02:43:11;;;;;;;1999.90;999.90;;;16.10;99.90;;;;;;5032971;28;20022;-72
2022/07/24 02:45:37;;;;;;;1999.90;999.90;;;16.10;99.90;;;;;;5032664;28;20026;-72
2022/07/24 02:48:03;;;;;;;1999.90;999.90;;;16.10;99.90;;;;;;5032503;28;20045;-71
2022/07/24 02:50:32;;;;;;;1999.90;999.90;;;16.10;99.90;;;;;;5032676;28;20412;-72
2022/07/24 02:52:57;;;;;;;1999.90;999.90;;;16.00;99.90;;;;;;5032817;28;20096;-71
2022/07/24 02:55:24;;;;;;;1999.90;999.90;;;16.00;99.90;;;;;;5032485;28;20108;-72
2022/07/24 02:57:49;;;;;;;1999.90;999.90;;;16.00;99.90;;;;;;5033037;28;20025;-72
2022/07/24 03:00:17;;;;;;;1999.90;999.90;;;16.00;99.90;;;;;;5032831;28;20030;-72
2022/07/24 03:02:43;;;;;;;1999.90;999.90;;;15.90;99.90;;;;;;5032544;28;20065;-71
2022/07/24 03:05:09;;;;;;;1999.90;999.90;;;15.90;99.90;;;;;;5032669;28;20484;-72
2022/07/24 03:07:38;;;;;;;1999.90;999.90;;;15.90;99.90;;;;;;5033032;28;20026;-71
2022/07/24 03:10:05;;;;;;;1999.90;999.90;;;15.80;99.90;;;;;;5032506;28;20076;-72
2022/07/24 03:12:31;;;;;;;1999.90;999.90;;;15.80;99.90;;;;;;5032456;28;20021;-72
2022/07/24 03:14:57;;;;;;;1999.90;999.90;;;15.80;99.90;;;;;;5032822;28;20030;-72
2022/07/24 03:17:22;;;;;;;1999.90;999.90;;;15.80;99.90;;;;;;5032461;28;20038;-71
2022/07/24 03:19:48;;;;;;;1999.90;999.90;;;15.70;99.90;;;;;;5032506;28;20110;-72
2022/07/24 03:22:14;;;;;;;1999.90;999.90;;;15.70;99.90;;;;;;5032471;28;20084;-72
2022/07/24 03:24:39;;;;;;;1999.90;999.90;;;15.70;99.90;;;;;;5032279;28;20038;-71
2022/07/24 03:27:05;;;;;;;1999.90;999.90;;;15.70;99.90;;;;;;5032158;28;20046;-71
2022/07/24 03:29:31;;;;;;;1999.90;999.90;;;15.70;99.90;;;;;;5032440;28;20029;-71
2022/07/24 03:31:56;;;;;;;1999.90;999.90;;;15.70;99.90;;;;;;5032552;28;20507;-71
2022/07/24 03:34:22;;;;;;;1999.90;999.90;;;15.70;99.90;;;;;;5032248;28;20080;-71
2022/07/24 03:36:48;;;;;;;1999.90;999.90;;;15.70;99.90;;;;;;5032807;28;20060;-71
2022/07/24 03:39:14;;;;;;;1999.90;999.90;;;15.70;99.90;;;;;;5047614;28;20121;-72
2022/07/24 03:41:39;;;;;;;1999.90;999.90;;;15.60;99.90;;;;;;5032318;28;20029;-71
2022/07/24 03:44:06;;;;;;;1999.90;999.90;;;15.70;99.90;;;;;;5032630;28;20030;-72
2022/07/24 03:46:31;;;;;;;1999.90;999.90;;;15.60;99.90;;;;;;5032535;28;20021;-72
2022/07/24 03:48:57;;;;;;;1999.90;999.90;;;15.60;99.90;;;;;;5033948;28;20400;-72
2022/07/24 03:51:24;;;;;;;1999.90;999.90;;;15.60;99.90;;;;;;5035953;28;20022;-71
2022/07/24 03:53:50;;;;;;;1999.90;999.90;;;15.60;99.90;;;;;;5035987;28;20491;-71
2022/07/24 03:56:15;;;;;;;1999.90;999.90;;;15.60;99.90;;;;;;5035694;28;20028;-71
2022/07/24 03:58:41;;;;;;;1999.90;999.90;;;15.60;99.90;;;;;;5035791;28;20130;-71
2022/07/24 04:01:07;;;;;;;1999.90;999.90;;;15.50;99.90;;;;;;5036032;28;20025;-72
2022/07/24 04:03:33;;;;;;;1999.90;999.90;;;15.50;99.90;;;;;;5035379;28;20035;-72
2022/07/24 04:06:03;;;;;;;1999.90;999.90;;;15.50;99.90;;;;;;5035778;28;20037;-71
2022/07/24 04:08:29;;;;;;;1999.90;999.90;;;15.50;99.90;;;;;;5028042;28;20026;-71
2022/07/24 04:10:57;;;;;;;1999.90;999.90;;;15.50;99.90;;;;;;5015493;28;20021;-71
2022/07/24 04:13:25;;;;;;;1999.90;999.90;;;15.50;99.90;;;;;;5015935;28;20026;-72
2022/07/24 04:15:51;;;;;;;1999.90;999.90;;;15.50;99.90;;;;;;5015050;28;20018;-71
2022/07/24 04:18:16;;;;;;;1999.90;999.90;;;15.50;99.90;;;;;;5014523;28;20030;-70
2022/07/24 04:20:42;;;;;;;1999.90;999.90;;;15.50;99.90;;;;;;5015834;28;20097;-70
2022/07/24 04:23:08;;;;;;;1999.90;999.90;;;15.50;99.90;;;;;;5015367;28;20022;-72
2022/07/24 04:25:34;;;;;;;1999.90;999.90;;;15.50;99.90;;;;;;5015239;28;20032;-72
2022/07/24 04:28:01;;;;;;;1999.90;999.90;;;15.50;99.90;;;;;;5015039;28;20046;-72
2022/07/24 04:30:27;;;;;;;1999.90;999.90;;;15.50;99.90;;;;;;5015408;28;20413;-71
2022/07/24 04:32:53;;;;;;;1999.90;999.90;;;15.50;99.90;;;;;;5015395;28;20029;-72
2022/07/24 04:35:19;;;;;;;1999.90;999.90;;;15.50;99.90;;;;;;5015151;28;20448;-72
2022/07/24 04:37:45;;;;;;;1999.90;999.90;;;15.50;99.90;;;;;;5019962;28;20032;-71
2022/07/24 04:40:12;;;;;;;1999.90;999.90;;;15.50;99.90;;;;;;5034716;28;20108;-72
2022/07/24 04:42:39;;;;;;;1999.90;999.90;;;15.50;99.90;;;;;;5034766;28;20022;-72
2022/07/24 04:45:05;;;;;;;1999.90;999.90;;;15.50;99.90;;;;;;5035073;28;20446;-71
2022/07/24 04:47:31;;;;;;;1999.90;999.90;;;15.50;99.90;;;;;;5034170;28;20025;-72
2022/07/24 04:49:57;;;;;;;1999.90;999.90;;;15.50;99.90;;;;;;5034891;28;20391;-72
2022/07/24 04:52:23;;;;;;;1999.90;999.90;;;15.50;99.90;;;;;;5034862;28;20101;-72
2022/07/24 04:54:48;;;;;;;1999.90;999.90;;;15.50;99.90;;;;;;5034752;28;20124;-71
2022/07/24 04:57:14;;;;;;;1999.90;999.90;;;15.50;99.90;;;;;;5034897;28;20128;-71
2022/07/24 04:59:40;;;;;;;1999.90;999.90;;;15.50;99.90;;;;;;5034591;28;20036;-70
2022/07/24 05:02:05;;;;;;;1999.90;999.90;;;15.50;99.90;;;;;;5034051;28;20032;-72
2022/07/24 05:04:31;;;;;;;1999.90;999.90;;;15.60;99.90;;;;;;5034507;28;20056;-72
2022/07/24 05:06:57;;;;;;;1999.90;999.90;;;15.60;99.90;;;;;;5034524;28;20060;-72
2022/07/24 05:09:22;;;;;;;1999.90;999.90;;;15.60;99.90;;;;;;5019658;28;20113;-71
2022/07/24 05:11:51;;;;;;;1999.90;999.90;;;15.60;99.90;;;;;;5014422;28;20030;-71
2022/07/24 05:14:16;;;;;;;1999.90;999.90;;;15.60;99.90;;;;;;5014733;28;20504;-72
2022/07/24 05:16:42;;;;;;;1999.90;999.90;;;15.70;99.90;;;;;;5014260;28;20026;-71
2022/07/24 05:19:08;;;;;;;1999.90;999.90;;;15.70;99.90;;;;;;5014490;28;20543;-72
2022/07/24 05:21:33;;;;;;;1999.90;999.90;;;15.80;99.90;;;;;;5014309;28;20048;-72
2022/07/24 05:24:01;;;;;;;1999.90;999.90;;;15.80;99.90;;;;;;5014668;28;20022;-71
2022/07/24 05:26:27;;;;;;;1999.90;999.90;;;15.90;99.90;;;;;;5014048;28;20026;-71
2022/07/24 05:28:53;;;;;;;1999.90;999.90;;;16.00;99.90;;;;;;5013955;28;20092;-72
2022/07/24 05:31:18;;;;;;;1999.90;999.90;;;16.10;99.90;;;;;;5014316;28;20033;-72
2022/07/24 05:33:44;;;;;;;1999.90;999.90;;;16.20;99.90;;;;;;5014374;28;20374;-72
2022/07/24 05:36:09;;;;;;;1999.90;999.90;;;16.20;99.90;;;;;;5023180;28;20045;-71
2022/07/24 05:38:35;;;;;;;1999.90;999.90;;;16.30;99.90;;;;;;5033824;28;20029;-71
2022/07/24 05:41:01;;;;;;;1999.90;999.90;;;16.40;99.90;;;;;;5033596;28;20396;-72
2022/07/24 05:43:27;;;;;;;1999.90;999.90;;;16.50;99.90;;;;;;5034027;28;20025;-72
2022/07/24 05:45:53;;;;;;;1999.90;999.90;;;16.60;99.90;;;;;;5033906;28;20477;-72
2022/07/24 05:48:18;;;;;;;1999.90;999.90;;;16.60;99.90;;;;;;5033250;28;20029;-71
2022/07/24 05:50:44;;;;;;;1999.90;999.90;;;16.80;99.90;;;;;;5033702;28;20025;-71
2022/07/24 05:53:10;;;;;;;1999.90;999.90;;;16.90;99.90;;;;;;5033633;28;20111;-72
2022/07/24 05:55:35;;;;;;;1999.90;999.90;;;17.00;99.90;;;;;;5033357;28;20148;-72
2022/07/24 05:58:03;;;;;;;1999.90;999.90;;;17.20;99.90;;;;;;5033902;28;20026;-71
2022/07/24 06:00:29;;;;;;;1999.90;999.90;;;17.30;99.90;;;;;;5033560;28;20052;-72
2022/07/24 06:02:55;;;;;;;1999.90;999.90;;;17.40;99.90;;;;;;5033540;28;20110;-71
2022/07/24 06:05:20;;;;;;;1999.90;999.90;;;17.50;99.90;;;;;;5033483;28;20025;-70
2022/07/24 06:07:46;;;;;;;1999.90;999.90;;;17.60;99.90;;;;;;5031906;28;20560;-71
2022/07/24 06:10:12;;;;;;;1999.90;999.90;;;17.80;99.90;;;;;;5013031;28;20037;-72
2022/07/24 06:12:38;;;;;;;1999.90;999.90;;;18.00;99.90;;;;;;5013114;28;20025;-71
2022/07/24 06:15:04;;;;;;;1999.90;999.90;;;18.20;99.90;;;;;;5013804;28;20392;-71
2022/07/24 06:17:30;;;;;;;1999.90;999.90;;;18.30;99.90;;;;;;5013332;28;20025;-71
2022/07/24 06:19:55;;;;;;;1999.90;999.90;;;18.40;99.90;;;;;;5013481;28;20100;-72
2022/07/24 06:22:21;;;;;;;1999.90;999.90;;;18.50;99.90;;;;;;5013450;28;20505;-73
2022/07/24 06:24:46;;;;;;;1999.90;999.90;;;18.70;99.90;;;;;;5044990;28;20084;-72
2022/07/24 06:27:12;;;;;;;1999.90;999.90;;;18.80;99.90;;;;;;5013155;28;20053;-71
2022/07/24 06:29:39;;;;;;;1999.90;999.90;;;19.00;99.90;;;;;;5013510;28;20123;-71
2022/07/24 06:32:05;;;;;;;1999.90;999.90;;;19.10;99.90;;;;;;5013438;28;20033;-73
2022/07/24 06:34:31;;;;;;;1999.90;999.90;;;19.20;99.90;;;;;;5013350;28;20073;-72
2022/07/24 06:36:56;;;;;;;1999.90;999.90;;;19.30;99.90;;;;;;5013343;28;20398;-71
2022/07/24 06:39:22;;;;;;;1999.90;999.90;;;19.40;99.90;;;;;;5031181;28;20496;-72
2022/07/24 06:41:48;;;;;;;1999.90;999.90;;;19.60;99.90;;;;;;5032619;28;20153;-72
2022/07/24 06:44:14;;;;;;;1999.90;999.90;;;19.70;99.90;;;;;;5033167;28;20028;-70
2022/07/24 06:46:39;;;;;;;1999.90;999.90;;;19.80;99.90;;;;;;5032968;28;20029;-72
2022/07/24 06:49:05;;;;;;;1999.90;999.90;;;20.00;99.90;;;;;;5032478;28;20029;-72
2022/07/24 06:51:31;;;;;;;1999.90;999.90;;;20.10;99.90;;;;;;5032870;28;20495;-71
2022/07/24 06:53:56;;;;;;;1999.90;999.90;;;20.30;99.90;;;;;;5033090;28;20022;-71
2022/07/24 06:56:22;;;;;;;1999.90;999.90;;;20.40;99.90;;;;;;5032667;28;20030;-71
2022/07/24 06:58:48;;;;;;;1999.90;999.90;;;20.50;99.90;;;;;;5033013;28;20025;-72
2022/07/24 07:01:13;;;;;;;1999.90;999.90;;;20.60;99.90;;;;;;5032833;28;20104;-71
2022/07/24 07:03:39;;;;;;;1999.90;999.90;;;20.70;99.90;;;;;;5032732;28;20041;-73
2022/07/24 07:06:05;;;;;;;1999.90;999.90;;;20.90;99.90;;;;;;5032680;28;20476;-72
2022/07/24 07:08:31;;;;;;;1999.90;999.90;;;21.00;99.90;;;;;;5024904;28;20092;-70
2022/07/24 07:10:56;;;;;;;1999.90;999.90;;;21.10;99.90;;;;;;5012512;28;20105;-71
2022/07/24 07:13:22;;;;;;;1999.90;999.90;;;21.30;99.90;;;;;;5013074;28;20400;-73
2022/07/24 07:15:48;;;;;;;1999.90;999.90;;;21.40;99.90;;;;;;5012022;28;20036;-72
2022/07/24 07:18:14;;;;;;;1999.90;999.90;;;21.40;99.90;;;;;;5012595;28;20022;-71
2022/07/24 07:20:40;;;;;;;1999.90;999.90;;;21.50;99.90;;;;;;5012963;28;20037;-71
2022/07/24 07:23:06;;;;;;;1999.90;999.90;;;21.70;99.90;;;;;;5015746;28;20563;-71
2022/07/24 07:25:31;;;;;;;1999.90;999.90;;;21.80;99.90;;;;;;5016424;28;20053;-72
2022/07/24 07:27:57;;;;;;;1999.90;999.90;;;21.90;99.90;;;;;;5016352;28;20390;-71
2022/07/24 07:30:23;;;;;;;1999.90;999.90;;;22.10;99.90;;;;;;5016617;28;20038;-73
2022/07/24 07:32:48;;;;;;;1999.90;999.90;;;22.30;99.90;;;;;;5016661;28;20430;-72
2022/07/24 07:35:14;;;;;;;1999.90;999.90;;;22.40;99.90;;;;;;5016380;28;20413;-73
2022/07/24 07:37:39;;;;;;;1999.90;999.90;;;22.50;99.90;;;;;;5020359;28;20492;-73
2022/07/24 07:40:06;;;;;;;1999.90;999.90;;;22.70;99.90;;;;;;5034983;28;20026;-72
2022/07/24 07:42:31;;;;;;;1999.90;999.90;;;22.90;99.90;;;;;;5035778;28;20029;-73
2022/07/24 07:44:57;;;;;;;1999.90;999.90;;;23.20;99.90;;;;;;5036178;28;20036;-72
2022/07/24 07:47:23;;;;;;;1999.90;999.90;;;23.90;99.50;;;;;;5036405;28;20026;-71
2022/07/24 07:49:48;;;;;;;1999.90;999.90;;;26.20;96.70;;;;;;5035126;28;20036;-73
2022/07/24 07:52:14;;;;;;;1999.90;999.90;;;28.50;93.40;;;;;;5035862;28;20093;-73
2022/07/24 07:54:40;;;;;;;1999.90;999.90;;;30.10;91.50;;;;;;5035622;28;20033;-73
2022/07/24 07:57:05;;;;;;;1999.90;999.90;;;31.10;90.20;;;;;;5036008;28;20436;-73
2022/07/24 07:59:31;;;;;;;1999.90;999.90;;;31.60;87.60;;;;;;5036108;28;20045;-72
2022/07/24 08:01:56;;;;;;;1999.90;999.90;;;31.90;85.90;;;;;;5035669;28;20087;-71
2022/07/24 08:04:22;;;;;;;1999.90;999.90;;;32.60;85.90;;;;;;5035699;28;20034;-71
2022/07/24 08:06:48;;;;;;;1999.90;999.90;;;32.90;84.30;;;;;;5035822;28;20075;-71
2022/07/24 08:09:13;;;;;;;1999.90;999.90;;;33.00;83.70;;;;;;5021893;28;20504;-71
2022/07/24 08:11:39;;;;;;;1999.90;999.90;;;33.20;83.40;;;;;;5015592;28;20026;-70
2022/07/24 08:14:05;;;;;;;1999.90;999.90;;;33.90;82.40;;;;;;5016018;28;20022;-70
2022/07/24 08:16:30;;;;;;;1999.90;999.90;;;34.10;82.00;;;;;;5015629;28;20018;-70
2022/07/24 08:18:56;;;;;;;1999.90;999.90;;;34.60;80.90;;;;;;5015435;28;20481;-72
2022/07/24 08:21:22;;;;;;;1999.90;999.90;;;35.20;79.70;;;;;;5015551;28;20105;-70
2022/07/24 08:23:48;;;;;;;1999.90;999.90;;;35.90;79.20;;;;;;5015709;28;20500;-71
2022/07/24 08:26:14;;;;;;;1999.90;999.90;;;36.60;78.60;;;;;;5015457;28;20485;-72
2022/07/24 08:28:40;;;;;;;1999.90;999.90;;;35.50;77.80;;;;;;5015199;28;20065;-72
2022/07/24 08:31:06;;;;;;;1999.90;999.90;;;35.90;77.90;;;;;;5015070;28;20026;-71
2022/07/24 08:33:32;;;;;;;1999.90;999.90;;;36.40;78.80;;;;;;5014570;28;20473;-72
2022/07/24 08:35:57;;;;;;;1999.90;999.90;;;36.70;77.90;;;;;;5015960;28;20075;-72
2022/07/24 08:38:23;;;;;;;1999.90;999.90;;;37.00;76.80;;;;;;5024958;28;20041;-71
2022/07/24 08:40:49;;;;;;;1999.90;999.90;;;37.50;76.50;;;;;;5034894;28;20477;-71
2022/07/24 08:43:15;;;;;;;1999.90;999.90;;;38.20;74.80;;;;;;5035121;28;20033;-70
2022/07/24 08:45:43;;;;;;;1999.90;999.90;;;38.10;74.00;;;;;;5035233;28;20071;-72
2022/07/24 08:48:10;;;;;;;1999.90;999.90;;;38.50;74.70;;;;;;5035250;28;20040;-72
2022/07/24 08:50:38;;;;;;;1999.90;999.90;;;38.10;73.40;;;;;;5034193;28;20033;-72
2022/07/24 08:53:05;;;;;;;1999.90;999.90;;;38.10;72.60;;;;;;5034757;28;20526;-72
2022/07/24 08:55:30;;;;;;;1999.90;999.90;;;38.50;72.20;;;;;;5034497;28;20048;-72
2022/07/24 08:57:57;;;;;;;1999.90;999.90;;;39.10;72.30;;;;;;5034874;28;20461;-71
2022/07/24 09:00:24;;;;;;;1999.90;999.90;;;39.20;71.60;;;;;;5034960;28;20028;-72
2022/07/24 09:02:50;;;;;;;1999.90;999.90;;;39.80;71.10;;;;;;5033216;28;20033;-72
2022/07/24 09:05:15;;;;;;;1999.90;999.90;;;39.60;71.00;;;;;;5034848;28;20017;-72
2022/07/24 09:07:41;;;;;;;1999.90;999.90;;;39.30;70.40;;;;;;5034239;28;20037;-71
2022/07/24 09:10:09;;;;;;;1999.90;999.90;;;39.60;70.10;;;;;;5034196;28;20025;-71
2022/07/24 09:12:42;;;;;;;1999.90;999.90;;;38.80;69.20;;;;;;5034579;28;20108;-72
2022/07/24 09:15:23;;;;;;;1999.90;999.90;;;39.30;69.40;;;;;;5034513;28;20046;-72
2022/07/24 09:17:56;;;;;;;1999.90;999.90;;;39.30;69.40;;;;;;5034121;28;20079;-71
2022/07/24 09:20:24;;;;;;;1999.90;999.90;;;39.00;69.20;;;;;;5034303;28;20029;-72
2022/07/24 09:22:50;;;;;;;1999.90;999.90;;;39.20;69.00;;;;;;5033934;28;20032;-72
2022/07/24 09:25:17;;;;;;;1999.90;999.90;;;39.40;68.30;;;;;;5032734;28;20404;-72
2022/07/24 09:27:59;;;;;;;1999.90;999.90;;;39.70;69.30;;;;;;5033874;28;20056;-71
2022/07/24 09:30:29;;;;;;;1999.90;999.90;;;39.80;68.40;;;;;;5034214;28;20034;-72
2022/07/24 09:32:57;;;;;;;1999.90;999.90;;;40.10;67.20;;;;;;5034216;28;20034;-71
2022/07/24 09:35:45;;;;;;;1999.90;999.90;;;39.70;67.30;;;;;;5033746;28;20026;-71
2022/07/24 09:38:24;;;;;;;1999.90;999.90;;;39.70;67.70;;;;;;5033860;28;20033;-72
2022/07/24 09:40:55;;;;;;;1999.90;999.90;;;39.90;67.80;;;;;;5033607;28;20017;-72
2022/07/24 09:43:27;;;;;;;1999.90;999.90;;;40.10;67.50;;;;;;5033990;28;20056;-72
2022/07/24 09:45:52;;;;;;;1999.90;999.90;;;40.20;67.20;;;;;;5032959;28;20029;-72
2022/07/24 09:48:22;;;;;;;1999.90;999.90;;;40.60;66.30;;;;;;5034045;28;20108;-71
2022/07/24 09:50:51;;;;;;;1999.90;999.90;;;40.60;66.80;;;;;;5032749;28;20029;-72
2022/07/24 09:53:19;;;;;;;1999.90;999.90;;;40.80;66.20;;;;;;5033775;28;20481;-73
2022/07/24 09:55:55;;;;;;;1999.90;999.90;;;41.10;65.90;;;;;;5033384;28;20060;-71
2022/07/24 09:58:21;;;;;;;1999.90;999.90;;;41.30;65.80;;;;;;5033577;28;20087;-71
2022/07/24 10:00:48;;;;;;;1999.90;999.90;;;40.40;66.20;;;;;;5033773;28;20026;-73
2022/07/24 10:03:15;;;;;;;1999.90;999.90;;;39.60;66.10;;;;;;5033296;28;20033;-73
2022/07/24 10:05:45;;;;;;;1999.90;999.90;;;40.00;66.20;;;;;;5033680;28;20025;-73
2022/07/24 10:08:13;;;;;;;1999.90;999.90;;;39.80;65.20;;;;;;5033515;28;20026;-73
2022/07/24 10:10:41;;;;;;;1999.90;999.90;;;40.00;65.60;;;;;;5032972;28;20033;-72
2022/07/24 10:13:08;;;;;;;1999.90;999.90;;;40.40;64.80;;;;;;5033374;28;20025;-73
2022/07/24 10:15:37;;;;;;;1999.90;999.90;;;39.80;64.80;;;;;;5032633;28;20207;-73
2022/07/24 10:18:15;;;;;;;1999.90;999.90;;;38.70;64.90;;;;;;5033442;28;20472;-73
2022/07/24 10:20:43;;;;;;;1999.90;999.90;;;38.60;65.70;;;;;;5033246;28;20148;-73
2022/07/24 10:23:20;;;;;;;1999.90;999.90;;;39.50;65.30;;;;;;5033036;28;20114;-72
2022/07/24 10:26:13;;;;;;;1999.90;999.90;;;39.70;64.70;;;;;;5033157;28;20053;-73
2022/07/24 10:28:43;;;;;;;1999.90;999.90;;;39.60;64.70;;;;;;5032793;28;20056;-72
2022/07/24 10:31:10;;;;;;;1999.90;999.90;;;40.00;64.30;;;;;;5033453;28;20107;-71
2022/07/24 10:33:38;;;;;;;1999.90;999.90;;;40.10;64.70;;;;;;5032875;28;20025;-72
2022/07/24 10:36:12;;;;;;;1999.90;999.90;;;40.20;64.10;;;;;;5033097;28;20101;-73
2022/07/24 10:38:41;;;;;;;1999.90;999.90;;;40.40;64.00;;;;;;5032921;28;20018;-71
2022/07/24 10:41:21;;;;;;;1999.90;999.90;;;40.30;63.90;;;;;;5033149;28;20029;-71
2022/07/24 10:44:11;;;;;;;1999.90;999.90;;;40.10;63.70;;;;;;5032983;28;20108;-73
2022/07/24 10:46:56;;;;;;;1999.90;999.90;;;39.80;63.90;;;;;;5032960;28;20024;-72
2022/07/24 10:49:41;;;;;;;1999.90;999.90;;;39.50;63.30;;;;;;5032937;28;20029;-72
2022/07/24 10:52:09;;;;;;;1999.90;999.90;;;38.40;63.60;;;;;;5032263;28;20021;-72
2022/07/24 10:54:35;;;;;;;1999.90;999.90;;;38.50;65.00;;;;;;5033052;28;20026;-72
2022/07/24 10:57:01;;;;;;;1999.90;999.90;;;39.30;64.00;;;;;;5033703;28;20037;-72
2022/07/24 10:59:41;;;;;;;1999.90;999.90;;;40.00;63.90;;;;;;5037221;28;20115;-72
2022/07/24 11:02:32;;;;;;;1999.90;999.90;;;39.70;63.50;;;;;;5037068;28;20032;-72
2022/07/24 11:05:22;;;;;;;1999.90;999.90;;;39.00;64.60;;;;;;5036894;28;20025;-73
2022/07/24 11:08:16;;;;;;;1999.90;999.90;;;38.60;63.40;;;;;;5036901;28;20033;-72
2022/07/24 11:10:49;;;;;;;1999.90;999.90;;;37.30;64.20;;;;;;5018315;28;20117;-72
2022/07/24 11:13:33;;;;;;;1999.90;999.90;;;37.00;64.90;;;;;;5016972;28;20017;-72
2022/07/24 11:16:11;;;;;;;1999.90;999.90;;;37.20;64.80;;;;;;5016871;28;20374;-71
2022/07/24 11:18:41;;;;;;;1999.90;999.90;;;37.90;64.00;;;;;;5016615;28;20050;-72
2022/07/24 11:21:08;;;;;;;1999.90;999.90;;;38.70;64.40;;;;;;5016843;28;20060;-73
2022/07/24 11:23:35;;;;;;;1999.90;999.90;;;39.40;63.60;;;;;;5016153;28;20049;-73
2022/07/24 11:26:31;;;;;;;1999.90;999.90;;;39.30;62.60;;;;;;5016130;28;20030;-73
2022/07/24 11:29:23;;;;;;;1999.90;999.90;;;39.50;62.90;;;;;;5016510;28;20045;-72
2022/07/24 11:31:56;;;;;;;1999.90;999.90;;;38.20;62.90;;;;;;5016576;28;20018;-72
2022/07/24 11:34:23;;;;;;;1999.90;999.90;;;38.40;63.60;;;;;;5016338;28;20026;-72
2022/07/24 11:36:51;;;;;;;1999.90;999.90;;;37.60;63.40;;;;;;5016489;28;20100;-71
2022/07/24 11:39:19;;;;;;;1999.90;999.90;;;38.20;63.30;;;;;;5033652;28;20444;-73
2022/07/24 11:41:46;;;;;;;1999.90;999.90;;;38.00;63.50;;;;;;5036056;28;20033;-71
2022/07/24 11:44:13;;;;;;;1999.90;999.90;;;38.30;63.70;;;;;;5036346;28;20030;-73
2022/07/24 11:46:41;;;;;;;1999.90;999.90;;;38.70;63.30;;;;;;5036014;28;20029;-73
2022/07/24 11:49:10;;;;;;;1999.90;999.90;;;38.70;63.30;;;;;;5036112;28;20030;-73
2022/07/24 11:51:48;;;;;;;1999.90;999.90;;;38.60;62.90;;;;;;5035303;28;20531;-72
2022/07/24 11:54:19;;;;;;;1999.90;999.90;;;37.90;63.40;;;;;;5036010;28;20025;-71
2022/07/24 11:56:45;;;;;;;1999.90;999.90;;;37.60;65.30;;;;;;5035549;28;20105;-72
2022/07/24 11:59:31;;;;;;;1999.90;999.90;;;36.30;66.60;;;;;;5036240;28;20109;-72
2022/07/24 12:02:10;;;;;;;1999.90;999.90;;;35.40;66.60;;;;;;5035181;28;20017;-72